首页
METAR-TAF:

METAR-TAF

机场 :

图尔库机场

圖爾庫, 芬兰

纬度: 60-31N, 经度: 022-16E, 海拔: 49米

当前天气观测

该预报发布于15分钟前的06:50 UTC
风速8节,风向西南
温度 2°C
湿度 87%
气压 994 hPa
能见度10公里或以上
少量云层高于1600英尺

METAR: EFTU 190650Z AUTO 23008KT 9999 FEW016 02/M00 Q0994

时间: 09:05 (07:05 UTC)

预报

该预报发布于1小时和40分钟前的05:25 UTC
预报有效从19日的 06点(UTC)到 20日的 06点(UTC)
风速10节,风向西转西南
能见度10公里或以上
1500米以下无云,无积雨云
几率 30% :
短暂存在
从 19日的 06点(UTC)到 19日的 18点(UTC)
多云层高于1200英尺
成为
从 19日的 19点(UTC)到 19日的 21点(UTC)
风速3节,风向北转西北
几率 40% :
短暂存在
从 19日的 20点(UTC)到 20日的 03点(UTC)
能見度: 3000
多云层高于500英尺
轻雾

TAF: EFTU 190525Z 1906/2006 25010KT CAVOK PROB30 TEMPO 1906/1918 BKN012 BECMG 1919/1921 33003KT PROB40 TEMPO 1920/2003 3000 BR BKN005

超过4000个机场的气象观测和天气预报(METAR&TAF报告)。

可查询的气象台以黄色和红色小点在地图上表示。

将鼠标移到小点上方,可查看气象台名称。

然后点击查看天气观测和预报。

如需切换地图:点击带黑十字的绿色按钮放大地图;点击带横线的绿色按钮缩小地图;或者点击绿色箭头查看邻近地区的地图。


METAR-TAF: